Wichita Mid-Continent, KS

6:15 PM CDT on July 30, 2015 (GMT -0500)
Wichita Mid-Continent | | Change Station
CLOSE
Current Station
Airport
Location: Wichita,
Elevation: 1332 ft
Nearby Weather Stations

Elev 1332 ft 37.65 °N, 97.43 °W | Updated 22 minutes ago

Scattered Clouds
Scattered Clouds
84 °F
Feels Like 88 °F
N
5
Wind Variable Wind from ESE

Today
High -- | Low -- °F
--% Chance of Precip.
Yesterday
High -- | Low -- °F
Precip. -- in
6:31 AM 8:40 PM
Full, 100% visible
Pressure 30.09 in
Visibility 10.0 miles
Clouds Scattered Clouds 3400 ft
Scattered Clouds 9000 ft
Scattered Clouds 16000 ft
Scattered Clouds 22000 ft
Heat Index 88 °F
Dew Point 69 °F
Humidity 61%
Rainfall 1.67 in
Snow Depth Not available.
UV 3 out of 12
Pollen 2.70 out of 12
Air Quality Not available.
Flu Activity Not available.
METAR KICT 302253Z 11004KT 10SM SCT034 SCT090 SCT160 SCT220 29/21 A3014 RMK AO2 SLP189 T02890206

More Conditions Fewer Conditions

Pressure 30.09 in
Visibility 10.0 miles
Clouds Scattered Clouds 3400 ft
Scattered Clouds 9000 ft
Scattered Clouds 16000 ft
Scattered Clouds 22000 ft
Heat Index 88 °F
Dew Point 69 °F
Humidity 61%
Rainfall 1.67 in
Snow Depth Not available.
UV 3 out of 12
Pollen 2.70 out of 12
Air Quality Not available.
Flu Activity Not available.
METAR KICT 302253Z 11004KT 10SM SCT034 SCT090 SCT160 SCT220 29/21 A3014 RMK AO2 SLP189 T02890206

More Conditions Fewer Conditions

10-Day Weather Forecast

×

Almanac

Astronomy

Jul. 30, 2015 Rise Set
Actual Time
Civil Twilight
Nautical Twilight
Astronomical Twilight
Moon
Length of Visible Light
Length of Day
Tomorrow will be .
, % of the Moon is Illuminated

Today's Extremes

State Highs State Lows

Community

WunderPhotos

Upload Photos

1,842,531 photos uploaded!

WunderBlogs® & News

Nearby

Air Quality

  Air Quality AQ Index Pollutant
Not available.

Snow Depth

Station Depth Elevation

Earthquake Activity

City Distance Mag. Time & Date
Minimum magnitude displayed is 2.5.

Coastal Water Temperatures

Place Temperature

Stations

Nearby Weather Stations

Station Location Temp. Windchill Dew Point Humidity Wind Precip. Elev Updated Type